Time;durP1;ratioP1;P1;durP2;ratioP2;P2;SDS_P1;SDS_P2;PMS_P1;PMS_P2;Temp;Humidity;BMP_temperature;BMP_pressure;BME280_temperature;BME280_humidity;BME280_pressure;Samples;Min_cycle;Max_cycle;Signal;HPM_P1;HPM_P2
2021/07/09 00:02:25;;;;;;;12.18;9.25;;;;;;;25.82;62.35;98958.46;2249634;79;20947;-80
2021/07/09 00:05:26;;;;;;;12.28;9.80;;;;;;;25.73;62.44;98960.24;2249708;79;20936;-82
2021/07/09 00:08:28;;;;;;;10.58;8.88;;;;;;;25.75;62.48;98975.73;2249693;79;20944;-81
2021/07/09 00:11:29;;;;;;;12.28;10.60;;;;;;;25.53;62.76;99058.70;2249338;79;20960;-81
2021/07/09 00:14:29;;;;;;;14.30;10.20;;;;;;;24.86;65.32;99054.94;2249747;79;20903;-82
2021/07/09 00:17:30;;;;;;;14.75;10.30;;;;;;;24.64;66.49;98972.25;2249756;79;20961;-82
2021/07/09 00:20:31;;;;;;;12.68;11.40;;;;;;;24.83;66.15;98967.44;2249764;79;20869;-81
2021/07/09 00:23:33;;;;;;;21.17;10.82;;;;;;;24.70;66.17;99062.73;2251860;79;21002;-81
2021/07/09 00:26:33;;;;;;;12.95;11.22;;;;;;;24.60;66.36;99040.03;2263485;79;20908;-82
2021/07/09 00:29:35;;;;;;;15.10;11.53;;;;;;;24.43;66.81;98982.50;2256768;79;20877;-80
2021/07/09 00:32:35;;;;;;;12.90;10.88;;;;;;;24.31;67.38;99051.91;2275913;77;21397;-81
2021/07/09 00:35:36;;;;;;;15.08;11.73;;;;;;;24.14;67.42;99024.52;2281668;78;21278;-80
2021/07/09 00:38:37;;;;;;;13.85;10.65;;;;;;;24.36;67.52;98965.89;2282329;78;20898;-81
2021/07/09 00:41:38;;;;;;;13.80;11.85;;;;;;;24.47;67.43;99033.94;2282401;78;20962;-82
2021/07/09 00:44:39;;;;;;;17.65;12.23;;;;;;;24.35;67.37;99005.50;2282131;78;21255;-83
2021/07/09 00:47:40;;;;;;;16.30;12.47;;;;;;;24.38;67.55;99021.38;2281716;78;20970;-78
2021/07/09 00:50:41;;;;;;;16.25;11.78;;;;;;;24.03;68.83;99012.08;2281729;78;21365;-81
2021/07/09 00:53:42;;;;;;;17.57;11.57;;;;;;;24.09;68.53;98979.84;2277452;78;21334;-81
2021/07/09 00:56:43;;;;;;;19.70;12.00;;;;;;;24.17;68.52;99002.66;2266937;78;20910;-81
2021/07/09 00:59:44;;;;;;;13.50;12.10;;;;;;;23.85;69.34;99004.81;2281781;78;21356;-81
2021/07/09 01:02:45;;;;;;;11.65;10.55;;;;;;;23.91;69.07;98991.23;2281810;78;20942;-81
2021/07/09 01:05:48;;;;;;;21.00;12.03;;;;;;;24.17;68.14;98990.19;2281930;78;20950;-80
2021/07/09 01:08:49;;;;;;;13.30;10.85;;;;;;;23.90;68.42;98996.17;2281822;78;21266;-81
2021/07/09 01:11:50;;;;;;;18.98;12.05;;;;;;;23.85;68.90;98982.63;2281623;78;20934;-81
2021/07/09 01:14:51;;;;;;;22.30;11.65;;;;;;;24.15;68.73;98992.92;2281690;78;20934;-80
2021/07/09 01:17:52;;;;;;;12.63;10.25;;;;;;;24.45;68.08;98994.84;2281557;78;20898;-80
2021/07/09 01:20:53;;;;;;;16.80;11.80;;;;;;;24.43;67.20;98989.17;2281525;78;20903;-80
2021/07/09 01:23:54;;;;;;;20.57;12.28;;;;;;;24.09;67.61;98994.97;2281451;78;21016;-81
2021/07/09 01:26:55;;;;;;;12.40;11.28;;;;;;;23.75;68.66;98995.44;2281332;78;20938;-80
2021/07/09 01:29:56;;;;;;;13.18;11.83;;;;;;;23.61;68.94;98992.45;2281710;78;20906;-80
2021/07/09 01:32:57;;;;;;;15.25;11.68;;;;;;;23.65;69.38;98998.06;2289888;78;20992;-80
2021/07/09 01:35:58;;;;;;;13.83;12.40;;;;;;;23.54;70.59;99011.77;2291587;78;20939;-80
2021/07/09 01:38:59;;;;;;;13.00;11.70;;;;;;;23.35;70.48;99008.02;2291492;78;20932;-80
2021/07/09 01:42:00;;;;;;;14.60;11.60;;;;;;;23.41;70.55;99001.16;2291498;78;20900;-80
2021/07/09 01:45:01;;;;;;;12.88;11.57;;;;;;;23.67;70.33;98997.08;2291079;78;20885;-81
2021/07/09 01:48:02;;;;;;;35.55;13.55;;;;;;;23.94;69.72;98987.13;2291610;78;20909;-79
2021/07/09 01:51:03;;;;;;;21.45;13.38;;;;;;;24.10;69.08;98970.91;2291741;78;20865;-83
2021/07/09 01:54:04;;;;;;;17.60;11.40;;;;;;;24.21;68.73;98970.92;2293331;77;20945;-84
2021/07/09 01:57:04;;;;;;;16.23;12.30;;;;;;;24.31;68.16;98975.02;2299136;77;20941;-82
2021/07/09 02:00:05;;;;;;;13.95;12.10;;;;;;;23.87;68.61;98968.30;2297285;77;20919;-84
2021/07/09 02:03:06;;;;;;;17.10;12.43;;;;;;;23.52;69.33;98966.98;2292738;78;20881;-83
2021/07/09 02:06:07;;;;;;;13.68;12.25;;;;;;;23.45;70.23;98965.49;2292162;78;20960;-83
2021/07/09 02:09:08;;;;;;;56.18;15.53;;;;;;;23.47;70.24;98966.30;2291822;78;20873;-83
2021/07/09 02:12:09;;;;;;;23.07;14.03;;;;;;;23.20;71.28;98954.87;2291595;78;21035;-83
2021/07/09 02:15:11;;;;;;;15.98;13.40;;;;;;;22.98;71.98;98944.61;2292128;78;20905;-83
2021/07/09 02:18:12;;;;;;;25.95;15.05;;;;;;;22.78;72.47;98940.84;2292191;78;20944;-80
2021/07/09 02:21:12;;;;;;;22.07;13.95;;;;;;;22.66;72.21;98945.28;2291536;78;20908;-82
2021/07/09 02:24:13;;;;;;;23.65;14.13;;;;;;;22.60;73.38;98944.63;2293188;77;20993;-83
2021/07/09 02:27:14;;;;;;;23.73;13.95;;;;;;;22.63;73.27;98946.72;2298981;77;20944;-84
2021/07/09 02:30:18;;;;;;;23.05;14.87;;;;;;;22.56;73.37;98959.83;2292235;77;20909;-82
2021/07/09 02:33:19;;;;;;;;;;;;;;;22.48;73.20;98965.37;2284800;78;20981;-85
2021/07/09 02:36:20;;;;;;;20.55;13.93;;;;;;;22.46;73.64;98959.24;2281880;78;20153;-83
2021/07/09 02:39:21;;;;;;;16.42;13.35;;;;;;;22.43;73.64;98959.80;2282274;78;21294;-83
2021/07/09 02:42:22;;;;;;;17.98;14.25;;;;;;;22.50;73.70;98962.66;2282075;78;20907;-83
2021/07/09 02:45:23;;;;;;;15.45;13.88;;;;;;;22.63;73.52;98957.36;2281967;78;21278;-79
2021/07/09 02:48:24;;;;;;;16.60;14.47;;;;;;;22.74;73.15;98952.52;2281870;78;20914;-83
2021/07/09 02:51:25;;;;;;;16.97;15.13;;;;;;;22.75;72.62;98952.94;2282002;78;20891;-83
2021/07/09 02:54:26;;;;;;;17.75;13.45;;;;;;;22.86;72.87;98960.56;2275644;78;21041;-82
2021/07/09 02:57:27;;;;;;;28.52;13.85;;;;;;;22.85;72.41;98964.15;2250107;79;20898;-82
2021/07/09 03:00:28;;;;;;;15.98;12.93;;;;;;;22.76;72.77;98959.13;2249608;79;20958;-84
2021/07/09 03:03:29;;;;;;;15.08;13.58;;;;;;;22.71;72.54;98942.45;2268742;78;20879;-83
2021/07/09 03:06:29;;;;;;;16.62;13.10;;;;;;;22.82;72.71;98934.52;2282199;78;20917;-83
2021/07/09 03:09:30;;;;;;;14.35;12.95;;;;;;;23.04;72.00;98932.41;2282129;78;20954;-82
2021/07/09 03:12:32;;;;;;;13.55;12.40;;;;;;;23.22;71.79;98937.03;2281804;78;21013;-84
2021/07/09 03:15:33;;;;;;;18.45;13.80;;;;;;;23.27;71.38;98927.08;2282114;78;20985;-83
2021/07/09 03:18:34;;;;;;;21.90;14.38;;;;;;;23.36;71.09;98932.52;2282028;78;20962;-82
2021/07/09 03:21:35;;;;;;;15.63;13.48;;;;;;;23.41;70.78;98932.77;2281990;78;20917;-83
2021/07/09 03:24:37;;;;;;;22.55;13.60;;;;;;;23.55;70.41;98934.94;2275112;78;21006;-83
2021/07/09 03:27:38;;;;;;;15.83;13.95;;;;;;;23.51;70.11;98930.16;2249934;79;20916;-82
2021/07/09 03:30:39;;;;;;;21.87;13.75;;;;;;;23.49;69.90;98936.01;2269219;78;20965;-83
2021/07/09 03:33:39;;;;;;;14.10;12.70;;;;;;;23.44;70.25;98927.79;2251035;77;20987;-83
2021/07/09 03:36:44;;;;;;;14.85;12.93;;;;;;;23.53;70.09;98925.23;2249758;79;20893;-82
2021/07/09 03:39:43;;;;;;;13.98;12.58;;;;;;;23.64;69.48;98927.05;2249661;79;20924;-81
2021/07/09 03:42:44;;;;;;;13.18;11.93;;;;;;;23.76;69.54;98925.22;2249690;79;20932;-81
2021/07/09 03:45:45;;;;;;;13.80;12.45;;;;;;;23.83;68.85;98924.91;2249790;79;20995;-80
2021/07/09 03:48:46;;;;;;;15.18;12.47;;;;;;;23.85;68.73;98921.31;2249644;79;20885;-80
2021/07/09 03:51:47;;;;;;;14.03;11.85;;;;;;;23.87;68.52;98928.31;2249378;79;20971;-81
2021/07/09 03:54:48;;;;;;;16.07;11.95;;;;;;;23.87;68.52;98928.31;2249441;79;21035;-81
2021/07/09 03:57:49;;;;;;;30.23;12.65;;;;;;;23.87;68.36;98930.98;2249555;79;20908;-82
2021/07/09 04:00:52;;;;;;;13.45;12.13;;;;;;;23.93;68.35;98928.53;2249379;79;20920;-82
2021/07/09 04:03:53;;;;;;;12.90;11.48;;;;;;;24.07;68.27;98933.70;2249247;79;20971;-79
2021/07/09 04:06:54;;;;;;;14.50;11.33;;;;;;;24.20;67.97;98928.72;2248725;79;20967;-80
2021/07/09 04:09:58;;;;;;;72.58;17.27;;;;;;;24.29;67.48;98932.86;2248760;79;20944;-79
2021/07/09 04:12:59;;;;;;;14.60;11.40;;;;;;;24.39;67.37;98926.20;2248804;79;20955;-79
2021/07/09 04:16:00;;;;;;;12.73;11.25;;;;;;;24.60;67.21;98922.61;2248484;79;20981;-84
2021/07/09 04:19:01;;;;;;;19.12;12.98;;;;;;;24.80;66.60;98915.05;2248485;79;20948;-82
2021/07/09 04:22:02;;;;;;;26.52;12.75;;;;;;;24.90;66.09;98908.83;2249024;79;21311;-82
2021/07/09 04:25:03;;;;;;;25.12;13.50;;;;;;;25.13;66.06;98906.01;2249189;79;21303;-81
2021/07/09 04:28:04;;;;;;;15.55;11.18;;;;;;;25.46;65.17;98909.41;2249441;79;21261;-83
2021/07/09 04:31:05;;;;;;;21.35;11.18;;;;;;;25.84;64.53;98905.77;2249801;77;21356;-82
2021/07/09 04:34:06;;;;;;;19.12;11.12;;;;;;;26.03;63.22;98897.27;2291496;78;21311;-82
2021/07/09 04:37:08;;;;;;;12.80;11.10;;;;;;;26.23;61.91;98901.61;2291605;78;20965;-78
2021/07/09 04:40:09;;;;;;;14.60;11.40;;;;;;;26.28;61.98;98905.39;2292264;78;20968;-82
2021/07/09 04:43:10;;;;;;;15.50;11.30;;;;;;;26.50;61.81;98899.83;2291828;78;21384;-82
2021/07/09 04:46:11;;;;;;;21.50;11.25;;;;;;;26.59;61.19;98900.22;2292336;78;20935;-82
2021/07/09 04:49:12;;;;;;;24.07;11.73;;;;;;;26.70;60.58;98910.84;2291949;78;20920;-83
2021/07/09 04:52:13;;;;;;;17.85;11.55;;;;;;;26.85;60.03;98901.98;2292068;78;20955;-83
2021/07/09 04:55:15;;;;;;;25.45;12.07;;;;;;;26.96;59.77;98896.95;2291958;77;21007;-82
2021/07/09 04:58:16;;;;;;;17.87;11.48;;;;;;;27.08;59.73;98890.96;2291882;78;20919;-80
2021/07/09 05:01:17;;;;;;;18.15;10.90;;;;;;;27.17;59.43;98888.25;2290936;78;20920;-81
2021/07/09 05:04:19;;;;;;;12.15;9.55;;;;;;;27.41;59.44;98882.00;2290967;78;20959;-81
2021/07/09 05:07:20;;;;;;;14.60;8.95;;;;;;;27.42;58.37;98886.41;2291488;78;21353;-81
2021/07/09 05:10:21;;;;;;;13.08;9.68;;;;;;;27.20;58.49;98888.95;2290733;78;20908;-82
2021/07/09 05:13:22;;;;;;;12.70;9.85;;;;;;;27.25;58.41;98888.22;2290370;78;20999;-81
2021/07/09 05:16:23;;;;;;;14.68;10.20;;;;;;;27.42;58.26;98884.60;2290651;78;20934;-82
2021/07/09 05:19:24;;;;;;;10.85;9.75;;;;;;;27.53;57.95;98868.77;2291073;78;20964;-78
2021/07/09 05:22:25;;;;;;;12.80;10.08;;;;;;;27.65;57.27;98869.92;2291184;78;21248;-79
2021/07/09 05:25:26;;;;;;;16.12;9.85;;;;;;;27.69;57.34;98863.43;2291286;78;20984;-82
2021/07/09 05:28:27;;;;;;;11.50;9.55;;;;;;;27.75;57.26;98871.16;2291221;78;21024;-82
2021/07/09 05:31:28;;;;;;;11.48;9.55;;;;;;;27.84;56.55;98881.35;2290548;78;20968;-81
2021/07/09 05:34:29;;;;;;;11.40;10.20;;;;;;;27.76;56.76;98893.48;2281455;78;20933;-82
2021/07/09 05:37:30;;;;;;;11.43;10.08;;;;;;;27.65;56.38;98890.52;2281620;78;20903;-83
2021/07/09 05:40:31;;;;;;;11.10;10.08;;;;;;;27.69;56.50;98885.36;2281510;78;20898;-81
2021/07/09 05:43:32;;;;;;;15.13;9.75;;;;;;;27.75;56.65;98886.38;2280930;78;20954;-82
2021/07/09 05:46:33;;;;;;;23.47;21.10;;;;;;;27.90;56.47;98887.70;2281708;78;20917;-81
2021/07/09 05:49:34;;;;;;;13.98;10.38;;;;;;;28.08;56.40;98887.58;2281422;78;20973;-82
2021/07/09 05:52:35;;;;;;;10.75;9.80;;;;;;;28.25;55.26;98900.90;2281537;78;20911;-81
2021/07/09 05:55:36;;;;;;;10.65;9.58;;;;;;;28.27;55.56;98899.47;2281358;77;20981;-82
2021/07/09 05:58:37;;;;;;;10.30;9.18;;;;;;;28.32;54.97;98900.06;2281389;77;20945;-78
2021/07/09 06:01:38;;;;;;;22.35;10.50;;;;;;;28.19;54.66;98891.36;2281049;78;21421;-80
2021/07/09 06:04:39;;;;;;;12.90;10.48;;;;;;;28.11;54.86;98893.63;2280697;78;20967;-82
2021/07/09 06:07:42;;;;;;;12.73;9.65;;;;;;;28.14;55.81;98884.06;2281519;78;20934;-82
2021/07/09 06:10:43;;;;;;;11.68;10.18;;;;;;;28.17;55.18;98890.59;2281464;78;21593;-82
2021/07/09 06:13:44;;;;;;;11.53;9.73;;;;;;;28.34;54.95;98890.95;2281857;78;20996;-82
2021/07/09 06:16:46;;;;;;;12.68;10.05;;;;;;;28.79;53.86;98894.05;2281819;78;20914;-81
2021/07/09 06:19:47;;;;;;;33.58;12.65;;;;;;;29.23;53.30;98880.16;2281644;78;21349;-81
2021/07/09 06:22:49;;;;;;;10.08;9.08;;;;;;;29.69;52.95;98880.32;2281485;78;20957;-81
2021/07/09 06:25:50;;;;;;;12.60;10.35;;;;;;;29.86;50.54;98877.00;2281473;77;21084;-81
2021/07/09 06:28:55;;;;;;;10.95;9.58;;;;;;;29.75;51.22;98867.81;2281714;78;21278;-80
2021/07/09 06:31:56;;;;;;;11.22;9.88;;;;;;;29.75;51.48;98865.13;2276643;77;21020;-83
2021/07/09 06:34:57;;;;;;;24.77;10.43;;;;;;;29.91;50.81;98864.10;2249293;79;20948;-82
2021/07/09 06:37:58;;;;;;;17.50;10.40;;;;;;;30.17;50.64;98902.27;2248954;79;20936;-81
2021/07/09 06:41:05;;;;;;;21.57;11.00;;;;;;;30.10;49.72;98959.70;2249496;79;21292;-81
2021/07/09 06:44:05;;;;;;;14.65;9.68;;;;;;;29.94;50.84;98912.33;2249165;79;21404;-78
2021/07/09 06:47:06;;;;;;;14.28;10.23;;;;;;;29.97;50.52;98964.61;2248932;79;20951;-79
2021/07/09 06:50:07;;;;;;;13.58;10.65;;;;;;;29.83;50.44;98971.37;2249586;79;21329;-80
2021/07/09 06:53:08;;;;;;;11.95;10.48;;;;;;;29.46;51.03;98910.50;2249167;79;20939;-80
2021/07/09 06:56:09;;;;;;;12.50;10.43;;;;;;;29.27;51.01;98960.52;2249142;79;21023;-80
2021/07/09 06:59:10;;;;;;;12.70;10.70;;;;;;;28.93;51.84;98949.64;2249708;79;20909;-80
2021/07/09 07:02:12;;;;;;;12.20;10.90;;;;;;;28.79;52.13;98918.22;2249729;79;20920;-86
2021/07/09 07:05:13;;;;;;;16.77;12.70;;;;;;;28.85;54.00;98949.25;2249164;79;21280;-85
2021/07/09 07:08:14;;;;;;;12.85;11.60;;;;;;;29.29;53.03;98951.88;2248698;79;20952;-84
2021/07/09 07:11:15;;;;;;;16.12;12.43;;;;;;;29.40;51.98;98946.68;2249815;79;20920;-86
2021/07/09 07:14:16;;;;;;;14.03;11.80;;;;;;;29.29;53.19;98933.53;2249418;79;20991;-81
2021/07/09 07:17:19;;;;;;;14.13;12.25;;;;;;;29.24;53.38;98934.30;2249534;79;20961;-83
2021/07/09 07:20:21;;;;;;;13.32;11.35;;;;;;;29.18;54.35;98937.77;2249619;79;21360;-77
2021/07/09 07:23:21;;;;;;;15.95;13.40;;;;;;;28.91;55.10;98941.30;2249201;79;20924;-78
2021/07/09 07:26:22;;;;;;;13.45;12.05;;;;;;;28.87;54.76;98936.59;2249249;79;21022;-78
2021/07/09 07:29:23;;;;;;;15.32;13.83;;;;;;;28.49;55.26;98898.57;2249363;79;21316;-81
2021/07/09 07:32:25;;;;;;;13.83;12.65;;;;;;;28.70;54.83;98915.23;2255776;77;20938;-80
2021/07/09 07:35:26;;;;;;;21.12;14.15;;;;;;;28.86;55.23;98932.17;2281506;78;20894;-80
2021/07/09 07:38:27;;;;;;;14.63;13.13;;;;;;;28.66;54.94;98915.90;2281071;78;20882;-79
2021/07/09 07:41:27;;;;;;;15.80;12.58;;;;;;;28.79;54.90;98908.81;2281517;78;21282;-81
2021/07/09 07:44:29;;;;;;;14.83;12.90;;;;;;;28.96;54.86;98917.22;2281762;78;20922;-82
2021/07/09 07:47:30;;;;;;;46.23;15.38;;;;;;;29.14;54.33;98920.09;2281797;78;21370;-80
2021/07/09 07:50:31;;;;;;;13.95;12.75;;;;;;;29.16;53.90;98910.11;2280766;78;21437;-82
2021/07/09 07:53:36;;;;;;;17.45;12.63;;;;;;;29.30;54.21;98896.28;2280886;78;21020;-80
2021/07/09 07:56:37;;;;;;;17.65;12.47;;;;;;;29.43;54.06;98897.25;2280658;78;21026;-79
2021/07/09 07:59:38;;;;;;;19.52;12.40;;;;;;;29.62;53.55;98900.52;2281573;78;20914;-79
2021/07/09 08:02:39;;;;;;;13.35;12.00;;;;;;;29.72;52.52;98892.22;2281116;78;21393;-79
2021/07/09 08:05:40;;;;;;;15.03;12.25;;;;;;;29.70;52.23;98879.36;2281062;78;20938;-79
2021/07/09 08:08:43;;;;;;;15.85;12.23;;;;;;;29.92;52.62;98873.42;2281726;78;20945;-81
2021/07/09 08:11:44;;;;;;;16.93;12.07;;;;;;;30.16;51.59;98879.02;2281908;78;20962;-81
2021/07/09 08:14:45;;;;;;;13.10;11.95;;;;;;;30.12;51.23;98873.45;2281695;78;21384;-80
2021/07/09 08:17:46;;;;;;;13.03;11.48;;;;;;;30.37;51.55;98869.50;2281402;78;21330;-79
2021/07/09 08:20:47;;;;;;;13.13;11.10;;;;;;;30.76;50.51;98866.39;2281507;78;20962;-81
2021/07/09 08:23:47;;;;;;;14.28;10.68;;;;;;;31.06;50.12;98861.52;2281550;78;20914;-80
2021/07/09 08:26:48;;;;;;;19.23;12.30;;;;;;;31.29;49.34;98862.61;2281228;78;21009;-78
2021/07/09 08:29:49;;;;;;;14.18;11.80;;;;;;;31.27;48.96;98862.35;2281295;78;20953;-81
2021/07/09 08:32:50;;;;;;;14.43;11.05;;;;;;;31.33;48.39;98858.72;2272160;78;21293;-79
2021/07/09 08:35:51;;;;;;;13.75;10.58;;;;;;;31.28;49.03;98850.10;2249160;79;21364;-81
2021/07/09 08:38:52;;;;;;;14.40;11.43;;;;;;;31.49;48.65;98853.06;2249109;79;20905;-81
2021/07/09 08:41:55;;;;;;;52.80;16.00;;;;;;;31.53;48.30;98864.49;2248378;79;20892;-80
2021/07/09 08:44:56;;;;;;;12.03;10.72;;;;;;;31.46;48.52;98865.42;2248734;79;21380;-80
2021/07/09 08:47:57;;;;;;;17.07;10.78;;;;;;;31.66;48.10;98864.81;2249162;79;20897;-80
2021/07/09 08:50:58;;;;;;;12.33;11.12;;;;;;;31.74;47.45;98864.77;2249386;79;21341;-80
2021/07/09 08:53:58;;;;;;;12.68;11.40;;;;;;;32.03;48.27;98860.74;2249244;79;20968;-80
2021/07/09 08:56:59;;;;;;;13.32;11.65;;;;;;;32.36;46.55;98865.47;2248907;79;20975;-80
2021/07/09 09:00:00;;;;;;;12.78;11.40;;;;;;;32.61;46.45;98858.53;2249016;79;20913;-79
2021/07/09 09:03:01;;;;;;;12.70;11.40;;;;;;;32.86;45.61;98857.48;2249342;79;20948;-79
2021/07/09 09:06:02;;;;;;;13.30;11.95;;;;;;;32.75;45.30;98858.80;2248688;79;20972;-80
2021/07/09 09:09:03;;;;;;;14.45;11.80;;;;;;;32.58;45.79;98864.17;2248907;79;21014;-80
2021/07/09 09:12:04;;;;;;;13.35;11.93;;;;;;;32.71;45.27;98862.72;2249431;79;20924;-80
2021/07/09 09:15:05;;;;;;;12.00;10.80;;;;;;;32.80;45.50;98862.52;2248427;79;20951;-79
2021/07/09 09:18:06;;;;;;;12.33;10.30;;;;;;;33.13;45.42;98865.77;2248997;79;20884;-80
2021/07/09 09:21:07;;;;;;;17.25;11.38;;;;;;;33.41;44.80;98859.87;2249499;79;20925;-79
2021/07/09 09:24:08;;;;;;;16.20;11.85;;;;;;;33.64;44.24;98855.27;2248996;79;20925;-81
2021/07/09 09:27:09;;;;;;;13.53;12.07;;;;;;;33.79;43.97;98851.78;2248925;79;21025;-79
2021/07/09 09:30:10;;;;;;;12.58;11.30;;;;;;;33.62;43.52;98848.27;2248647;79;20921;-80
2021/07/09 09:33:11;;;;;;;14.40;12.23;;;;;;;33.43;44.21;98848.92;2258293;77;20958;-81
2021/07/09 09:36:12;;;;;;;14.23;11.63;;;;;;;33.39;44.07;98838.84;2281273;78;21426;-80
2021/07/09 09:39:16;;;;;;;16.40;11.48;;;;;;;33.43;43.08;98832.20;2281266;78;20974;-78
2021/07/09 09:42:21;;;;;;;45.38;16.23;;;;;;;33.43;44.20;98832.20;2281016;78;21326;-81
2021/07/09 09:45:22;;;;;;;14.47;11.90;;;;;;;33.63;43.47;98832.39;2281123;78;20957;-81
2021/07/09 09:48:23;;;;;;;15.50;11.28;;;;;;;33.83;42.89;98834.36;2281254;78;20883;-79
2021/07/09 09:51:24;;;;;;;20.27;11.93;;;;;;;33.77;42.53;98834.81;2280837;78;20930;-84
2021/07/09 09:54:25;;;;;;;13.08;11.88;;;;;;;33.67;42.85;98836.56;2281213;78;20965;-84
2021/07/09 09:57:26;;;;;;;602.55;88.60;;;;;;;33.34;43.32;98842.41;2280306;78;21456;-81
2021/07/09 10:00:27;;;;;;;12.47;11.18;;;;;;;33.24;42.94;98825.19;2281409;78;20894;-81
2021/07/09 10:03:28;;;;;;;16.25;12.13;;;;;;;33.39;43.03;98817.20;2281616;78;20970;-83
2021/07/09 10:06:29;;;;;;;82.62;18.17;;;;;;;33.68;41.90;98812.08;2281616;78;20953;-80
2021/07/09 10:09:30;;;;;;;12.65;11.10;;;;;;;33.80;42.09;98806.98;2280746;78;20914;-80
2021/07/09 10:12:31;;;;;;;13.45;10.48;;;;;;;34.06;42.04;98807.55;2280391;78;20898;-80
2021/07/09 10:15:32;;;;;;;70.55;63.63;;;;;;;34.27;41.62;98806.20;2281180;78;20990;-81
2021/07/09 10:18:33;;;;;;;16.65;12.65;;;;;;;34.35;41.71;98800.16;2281434;78;20899;-82
2021/07/09 10:21:35;;;;;;;18.55;11.88;;;;;;;34.46;41.36;98796.88;2280966;78;20949;-80
2021/07/09 10:24:36;;;;;;;15.03;10.85;;;;;;;34.60;41.41;98797.03;2281459;78;20945;-80
2021/07/09 10:27:40;;;;;;;13.03;10.93;;;;;;;34.89;41.46;98792.30;2281168;78;20961;-82
2021/07/09 10:30:42;;;;;;;12.40;11.28;;;;;;;35.11;40.09;98788.89;2281476;78;21346;-81
2021/07/09 10:33:43;;;;;;;23.20;12.30;;;;;;;34.88;40.48;98786.02;2267984;78;20956;-82
2021/07/09 10:36:43;;;;;;;15.43;10.72;;;;;;;34.83;41.62;98779.30;2248414;79;20903;-81
2021/07/09 10:39:45;;;;;;;13.90;12.30;;;;;;;34.90;40.50;98773.69;2248853;79;20916;-82
2021/07/09 10:42:49;;;;;;;13.35;11.70;;;;;;;34.93;40.32;98772.05;2249849;79;20898;-82
2021/07/09 10:45:50;;;;;;;14.10;11.97;;;;;;;35.01;39.70;98764.95;2248894;79;20888;-82
2021/07/09 10:48:51;;;;;;;13.50;11.18;;;;;;;35.13;39.85;98765.20;2248944;79;20964;-80
2021/07/09 10:51:52;;;;;;;12.23;11.03;;;;;;;35.38;39.39;98773.85;2249719;79;20976;-82
2021/07/09 10:54:55;;;;;;;14.28;10.58;;;;;;;35.36;39.01;98760.92;2249684;79;21280;-81
2021/07/09 10:57:56;;;;;;;13.38;10.85;;;;;;;35.37;38.90;98774.35;2249450;79;20983;-81
2021/07/09 11:00:57;;;;;;;13.95;11.10;;;;;;;35.29;38.56;98774.66;2249273;79;20888;-84
2021/07/09 11:03:58;;;;;;;10.93;9.90;;;;;;;35.30;39.04;98773.16;2249145;79;21000;-80
2021/07/09 11:06:59;;;;;;;13.35;10.53;;;;;;;35.54;37.53;98770.59;2249192;79;21395;-83
2021/07/09 11:10:01;;;;;;;14.55;9.48;;;;;;;35.81;38.57;98758.59;2249482;79;20991;-81
2021/07/09 11:13:02;;;;;;;12.50;9.55;;;;;;;35.99;37.84;98751.43;2248994;79;21088;-82
2021/07/09 11:16:04;;;;;;;10.35;9.25;;;;;;;36.10;37.76;98753.63;2248826;79;23353;-81
2021/07/09 11:19:07;;;;;;;18.50;9.53;;;;;;;35.88;37.36;98750.73;2249443;79;20900;-83
2021/07/09 11:22:09;;;;;;;10.93;9.90;;;;;;;36.21;37.92;98749.39;2249303;79;20940;-82
2021/07/09 11:25:10;;;;;;;118.53;21.23;;;;;;;36.47;36.21;98750.54;2249874;79;21325;-83
2021/07/09 11:28:11;;;;;;;12.33;8.45;;;;;;;36.09;35.86;98744.63;2248946;79;21011;-83
2021/07/09 11:31:12;;;;;;;10.20;8.40;;;;;;;35.99;36.87;98736.49;2249871;79;20921;-83
2021/07/09 11:34:13;;;;;;;9.75;8.15;;;;;;;35.54;36.70;98739.38;2269685;77;20991;-80
2021/07/09 11:37:14;;;;;;;11.08;8.80;;;;;;;34.97;36.97;98735.03;2290847;78;20905;-79
2021/07/09 11:40:17;;;;;;;17.85;9.10;;;;;;;34.60;38.18;98745.53;2290539;78;20943;-79
2021/07/09 11:43:17;;;;;;;;;;;;;;;34.50;38.36;98741.42;2293313;78;20957;-78
2021/07/09 11:46:18;;;;;;;25.45;9.88;;;;;;;34.53;38.63;98744.36;2291475;78;20100;-79
2021/07/09 11:49:23;;;;;;;12.95;8.98;;;;;;;34.54;38.24;98740.65;2291813;78;21312;-79
2021/07/09 11:52:24;;;;;;;12.82;9.18;;;;;;;34.55;38.69;98732.88;2291828;77;21061;-80
2021/07/09 11:55:31;;;;;;;12.30;9.55;;;;;;;34.44;38.57;98731.61;2290973;78;20999;-79
2021/07/09 11:58:32;;;;;;;15.15;9.45;;;;;;;34.17;38.73;98729.44;2290736;78;21451;-80
2021/07/09 12:01:33;;;;;;;9.55;8.63;;;;;;;34.06;39.71;98718.18;2291077;78;20952;-82
2021/07/09 12:04:34;;;;;;;23.65;8.98;;;;;;;33.93;40.34;98702.63;2290776;78;21300;-80
2021/07/09 12:07:36;;;;;;;33.80;10.50;;;;;;;33.68;39.80;98685.36;2290263;78;20952;-79
2021/07/09 12:10:37;;;;;;;15.23;9.45;;;;;;;33.56;39.19;98663.77;2291256;78;20946;-78
2021/07/09 12:13:43;;;;;;;15.30;9.20;;;;;;;33.20;40.23;98649.27;2290836;78;20992;-80
2021/07/09 12:16:41;;;;;;;10.25;8.78;;;;;;;32.99;40.90;98661.88;2290677;78;21004;-80
2021/07/09 12:19:42;;;;;;;25.82;16.37;;;;;;;32.83;41.04;98696.03;2291942;78;20905;-83
2021/07/09 12:22:43;;;;;;;12.82;11.53;;;;;;;32.56;41.67;98731.52;2292123;78;21352;-81
2021/07/09 12:25:43;;;;;;;24.92;11.95;;;;;;;32.27;42.72;98755.45;2291354;78;20964;-83
2021/07/09 12:28:44;;;;;;;96.95;13.95;;;;;;;31.97;43.27;98790.53;2291103;78;20976;-81
2021/07/09 12:31:45;;;;;;;85.97;9.33;;;;;;;31.65;41.07;98819.06;2290013;78;20984;-78
2021/07/09 12:34:48;;;;;;;28.75;5.90;;;;;;;30.62;36.51;98843.11;2289287;78;21415;-78
2021/07/09 12:37:49;;;;;;;24.27;5.53;;;;;;;29.44;37.12;98831.76;2289940;78;21008;-81
2021/07/09 12:40:50;;;;;;;37.10;6.50;;;;;;;28.75;40.33;98809.23;2290902;78;20921;-82
2021/07/09 12:43:51;;;;;;;20.68;5.78;;;;;;;28.26;42.38;98771.12;2290778;78;21016;-79
2021/07/09 12:46:52;;;;;;;20.10;5.92;;;;;;;27.89;43.39;98752.33;2290753;78;20895;-80
2021/07/09 12:49:53;;;;;;;23.02;5.72;;;;;;;27.40;45.12;98738.22;2290559;78;20951;-80
2021/07/09 12:52:55;;;;;;;27.98;6.10;;;;;;;26.95;45.94;98719.78;2268052;78;21034;-81
2021/07/09 12:55:56;;;;;;;14.98;4.87;;;;;;;26.61;47.37;98732.82;2291464;78;20911;-81
2021/07/09 12:58:57;;;;;;;15.00;4.62;;;;;;;26.42;47.17;98758.38;2290936;78;20983;-81
2021/07/09 13:01:59;;;;;;;17.37;5.95;;;;;;;26.09;48.27;98773.05;2291254;78;20971;-80
2021/07/09 13:05:00;;;;;;;12.93;6.03;;;;;;;25.94;48.26;98780.02;2291314;78;21408;-79
2021/07/09 13:08:01;;;;;;;18.23;6.12;;;;;;;25.45;49.99;98792.77;2290816;78;20955;-81
2021/07/09 13:11:02;;;;;;;17.40;6.25;;;;;;;24.86;51.43;98799.11;2291252;78;20951;-83
2021/07/09 13:14:04;;;;;;;19.73;9.50;;;;;;;24.85;52.35;98800.91;2291808;78;21333;-82
2021/07/09 13:17:05;;;;;;;16.30;7.97;;;;;;;24.95;51.79;98812.89;2291447;78;21391;-80
2021/07/09 13:20:06;;;;;;;15.85;7.45;;;;;;;24.89;51.87;98813.18;2291420;78;20916;-78
2021/07/09 13:23:09;;;;;;;13.95;7.15;;;;;;;24.60;51.57;98817.19;2291093;78;20904;-77
2021/07/09 13:26:10;;;;;;;10.38;5.83;;;;;;;24.47;51.80;98813.81;2290933;78;20920;-77
2021/07/09 13:29:11;;;;;;;11.12;5.83;;;;;;;24.45;52.33;98797.88;2291234;78;20969;-76
2021/07/09 13:32:12;;;;;;;12.73;6.28;;;;;;;24.45;53.00;98795.20;2291325;78;21069;-79
2021/07/09 13:35:16;;;;;;;13.58;5.90;;;;;;;24.26;53.30;98786.23;2284091;78;20962;-79
2021/07/09 13:38:16;;;;;;;28.80;6.85;;;;;;;24.03;54.08;98800.11;2280959;77;20956;-79
2021/07/09 13:41:17;;;;;;;15.15;6.85;;;;;;;24.42;55.70;98812.22;2281460;77;21310;-79
2021/07/09 13:44:18;;;;;;;21.07;8.35;;;;;;;25.08;54.27;98830.58;2281660;78;21259;-79
2021/07/09 13:47:19;;;;;;;11.83;6.95;;;;;;;25.51;54.41;98832.55;2281534;77;20968;-78
2021/07/09 13:50:19;;;;;;;14.38;7.37;;;;;;;25.85;53.83;98841.13;2281281;78;20943;-78
2021/07/09 13:53:20;;;;;;;13.83;8.43;;;;;;;26.05;53.35;98834.80;2281537;77;20910;-80
2021/07/09 13:56:22;;;;;;;13.32;8.08;;;;;;;25.87;53.26;98825.88;2281663;77;20951;-79